Time;durP1;ratioP1;P1;durP2;ratioP2;P2;SDS_P1;SDS_P2;PMS_P1;PMS_P2;Temp;Humidity;BMP_temperature;BMP_pressure;BME280_temperature;BME280_humidity;BME280_pressure;Samples;Min_cycle;Max_cycle;Signal;HPM_P1;HPM_P2
2022/04/17 00:00:13;;;;;;;;;;;7.00;58.10;;;;;;5046052;28;19964;-81
2022/04/17 00:02:39;;;;;;;;;;;7.10;56.40;;;;;;5049152;28;19913;-81
2022/04/17 00:05:06;;;;;;;;;;;7.20;56.50;;;;;;5055051;28;19913;-80
2022/04/17 00:07:31;;;;;;;;;;;7.10;56.70;;;;;;5041256;28;20050;-81
2022/04/17 00:09:57;;;;;;;;;;;7.10;57.60;;;;;;5044691;28;20353;-81
2022/04/17 00:12:23;;;;;;;;;;;7.30;58.10;;;;;;5051720;28;19921;-81
2022/04/17 00:14:53;;;;;;;;;;;7.10;57.30;;;;;;5044690;28;19919;-81
2022/04/17 00:17:18;;;;;;;;;;;7.00;57.80;;;;;;5043329;28;19963;-81
2022/04/17 00:19:44;;;;;;;;;;;7.00;58.80;;;;;;5041630;28;19912;-81
2022/04/17 00:22:10;;;;;;;;;;;6.90;59.00;;;;;;5052100;28;19921;-81
2022/04/17 00:24:36;;;;;;;;;;;6.80;58.80;;;;;;5051639;28;19913;-81
2022/04/17 00:27:01;;;;;;;;;;;6.80;58.00;;;;;;5044543;28;19993;-82
2022/04/17 00:29:27;;;;;;;;;;;6.80;58.80;;;;;;5047205;28;19920;-81
2022/04/17 00:31:53;;;;;;;;;;;6.80;58.90;;;;;;5042054;28;19952;-80
2022/04/17 00:34:19;;;;;;;;;;;6.60;58.70;;;;;;5042929;28;19927;-80
2022/04/17 00:36:45;;;;;;;;;;;6.70;59.50;;;;;;5049978;28;19913;-80
2022/04/17 00:39:10;;;;;;;;;;;6.70;59.70;;;;;;5047042;28;20385;-81
2022/04/17 00:41:36;;;;;;;;;;;6.70;60.30;;;;;;5056724;28;19917;-81
2022/04/17 00:44:01;;;;;;;;;;;6.60;59.90;;;;;;5048673;28;19913;-81
2022/04/17 00:46:27;;;;;;;;;;;6.80;58.20;;;;;;5047863;28;19913;-81
2022/04/17 00:48:53;;;;;;;;;;;6.70;58.60;;;;;;5045932;28;19913;-80
2022/04/17 00:51:18;;;;;;;;;;;6.70;58.80;;;;;;5047323;28;20012;-80
2022/04/17 00:53:47;;;;;;;;;;;6.60;59.60;;;;;;5039136;28;19917;-81
2022/04/17 00:56:12;;;;;;;;;;;6.50;59.50;;;;;;5044706;28;19913;-81
2022/04/17 00:58:38;;;;;;;;;;;6.50;60.30;;;;;;5047794;28;19978;-81
2022/04/17 01:01:04;;;;;;;;;;;6.40;60.50;;;;;;5046385;28;19944;-81
2022/04/17 01:03:29;;;;;;;;;;;6.30;60.10;;;;;;5050092;28;19920;-81
2022/04/17 01:05:55;;;;;;;;;;;6.20;60.20;;;;;;5056680;28;19909;-81
2022/04/17 01:08:21;;;;;;;;;;;6.20;60.60;;;;;;5055068;28;19913;-81
2022/04/17 01:10:47;;;;;;;;;;;6.40;61.00;;;;;;5052494;28;19913;-81
2022/04/17 01:13:12;;;;;;;;;;;6.30;60.90;;;;;;5052233;28;20376;-81
2022/04/17 01:15:38;;;;;;;;;;;6.50;60.90;;;;;;5072800;28;19915;-80
2022/04/17 01:18:04;;;;;;;;;;;6.30;60.20;;;;;;5052071;28;19921;-81
2022/04/17 01:20:30;;;;;;;;;;;6.20;61.10;;;;;;5057023;28;20207;-80
2022/04/17 01:26:56;;;;;;;;;;;6.10;59.90;;;;;;5053103;28;19970;-80
2022/04/17 01:28:26;;;;;;;;;;;6.10;61.60;;;;;;5052884;28;19959;-82
2022/04/17 01:30:55;;;;;;;;;;;6.10;61.80;;;;;;5059112;28;19913;-82
2022/04/17 01:33:21;;;;;;;;;;;6.00;62.00;;;;;;5057331;28;19952;-81
2022/04/17 01:35:46;;;;;;;;;;;6.00;62.40;;;;;;5058901;28;19924;-81
2022/04/17 01:38:12;;;;;;;;;;;6.10;61.80;;;;;;5054786;28;20027;-82
2022/04/17 01:40:37;;;;;;;;;;;6.10;62.60;;;;;;5060877;28;19921;-80
2022/04/17 01:43:12;;;;;;;;;;;6.00;62.60;;;;;;5052218;28;19928;-80
2022/04/17 01:45:38;;;;;;;;;;;6.00;62.80;;;;;;5056696;28;20356;-81
2022/04/17 01:48:04;;;;;;;;;;;6.00;62.40;;;;;;5039778;28;19947;-81
2022/04/17 01:50:30;;;;;;;;;;;6.00;63.00;;;;;;5037698;28;19920;-80
2022/04/17 01:52:59;;;;;;;;;;;6.10;63.20;;;;;;5050291;28;19936;-81
2022/04/17 01:55:25;;;;;;;;;;;6.10;62.10;;;;;;5048682;28;19939;-81
2022/04/17 01:57:51;;;;;;;;;;;6.00;62.00;;;;;;5045172;28;20377;-81
2022/04/17 02:00:17;;;;;;;;;;;6.00;61.80;;;;;;5052143;28;19920;-81
2022/04/17 02:02:42;;;;;;;;;;;6.00;62.70;;;;;;5037613;28;19913;-81
2022/04/17 02:05:08;;;;;;;;;;;6.00;61.90;;;;;;5039045;28;20362;-82
2022/04/17 02:07:35;;;;;;;;;;;6.20;61.70;;;;;;5039390;28;19920;-81
2022/04/17 02:10:02;;;;;;;;;;;6.20;61.60;;;;;;5043175;28;20000;-81
2022/04/17 02:12:27;;;;;;;;;;;6.10;61.80;;;;;;5045159;28;19912;-81
2022/04/17 02:14:53;;;;;;;;;;;6.10;61.70;;;;;;5053767;28;20322;-81
2022/04/17 02:17:18;;;;;;;;;;;6.10;62.10;;;;;;5045548;28;20233;-81
2022/04/17 02:19:44;;;;;;;;;;;6.00;62.70;;;;;;5049813;28;19932;-82
2022/04/17 02:22:10;;;;;;;;;;;6.10;61.10;;;;;;5043682;28;20051;-81
2022/04/17 02:24:35;;;;;;;;;;;6.10;60.70;;;;;;5054040;28;19974;-81
2022/04/17 02:27:00;;;;;;;;;;;6.10;61.90;;;;;;5050002;28;19916;-82
2022/04/17 02:29:26;;;;;;;;;;;6.20;61.50;;;;;;5049016;28;19921;-82
2022/04/17 02:31:51;;;;;;;;;;;6.10;61.50;;;;;;5045914;28;20031;-82
2022/04/17 02:34:17;;;;;;;;;;;6.00;62.30;;;;;;5041792;28;20447;-82
2022/04/17 02:36:42;;;;;;;;;;;5.80;63.50;;;;;;5046946;28;19947;-82
2022/04/17 02:39:08;;;;;;;;;;;5.80;63.60;;;;;;5034445;28;19991;-81
2022/04/17 02:41:33;;;;;;;;;;;5.70;64.30;;;;;;5051713;28;19921;-82
2022/04/17 02:43:59;;;;;;;;;;;5.50;64.80;;;;;;5047092;28;20249;-82
2022/04/17 02:49:08;;;;;;;;;;;5.40;64.90;;;;;;5043183;28;20340;-82
2022/04/17 02:51:34;;;;;;;;;;;5.30;64.90;;;;;;5049290;28;19913;-82
2022/04/17 02:54:00;;;;;;;;;;;5.20;65.80;;;;;;5035587;28;20352;-83
2022/04/17 02:56:26;;;;;;;;;;;5.10;65.90;;;;;;5045517;28;19971;-81
2022/04/17 02:58:55;;;;;;;;;;;5.20;65.60;;;;;;5045945;28;20384;-82
2022/04/17 03:06:50;;;;;;;;;;;5.00;66.50;;;;;;5045698;28;20494;-82
2022/04/17 03:09:18;;;;;;;;;;;5.10;66.30;;;;;;5042786;28;19925;-82
2022/04/17 03:11:44;;;;;;;;;;;5.00;66.90;;;;;;5047037;28;19955;-82
2022/04/17 03:14:09;;;;;;;;;;;5.10;67.20;;;;;;5044381;28;19913;-83
2022/04/17 03:16:35;;;;;;;;;;;5.10;66.90;;;;;;5048593;28;19932;-82
2022/04/17 03:19:01;;;;;;;;;;;4.90;66.30;;;;;;5040121;28;19917;-82
2022/04/17 03:21:27;;;;;;;;;;;4.80;67.20;;;;;;5055123;28;20460;-87
2022/04/17 03:23:52;;;;;;;;;;;5.00;67.00;;;;;;5051298;28;19913;-85
2022/04/17 03:26:18;;;;;;;;;;;4.80;67.40;;;;;;5052382;28;19934;-88
2022/04/17 03:28:43;;;;;;;;;;;4.70;67.90;;;;;;5045740;28;19936;-82
2022/04/17 03:31:09;;;;;;;;;;;5.00;67.20;;;;;;5042646;28;19912;-82
2022/04/17 03:33:34;;;;;;;;;;;4.80;66.60;;;;;;5054516;28;19921;-84
2022/04/17 03:35:59;;;;;;;;;;;4.70;67.40;;;;;;5049089;28;20024;-84
2022/04/17 03:38:25;;;;;;;;;;;4.60;67.40;;;;;;5067762;28;19971;-83
2022/04/17 03:40:50;;;;;;;;;;;4.60;68.10;;;;;;5047512;28;19971;-83
2022/04/17 03:43:16;;;;;;;;;;;4.70;67.30;;;;;;5043626;28;20377;-82
2022/04/17 03:45:41;;;;;;;;;;;4.70;67.10;;;;;;5042084;28;20364;-84
2022/04/17 03:48:07;;;;;;;;;;;4.80;67.50;;;;;;5052239;28;19912;-85
2022/04/17 03:50:32;;;;;;;;;;;4.60;67.80;;;;;;5056539;28;19935;-84
2022/04/17 03:52:58;;;;;;;;;;;4.60;68.30;;;;;;5067719;28;20527;-83
2022/04/17 03:55:24;;;;;;;;;;;4.60;68.50;;;;;;5053420;28;19920;-83
2022/04/17 03:57:49;;;;;;;;;;;4.60;68.20;;;;;;5049939;28;19916;-84
2022/04/17 04:00:16;;;;;;;;;;;4.60;68.30;;;;;;5051320;28;19939;-82
2022/04/17 04:02:41;;;;;;;;;;;4.60;69.10;;;;;;5053167;28;19912;-85
2022/04/17 04:05:08;;;;;;;;;;;4.70;68.70;;;;;;5040848;28;19940;-84
2022/04/17 04:07:34;;;;;;;;;;;4.60;68.50;;;;;;5053200;28;19920;-82
2022/04/17 04:09:59;;;;;;;;;;;4.70;68.40;;;;;;5050766;28;19913;-83
2022/04/17 04:12:26;;;;;;;;;;;4.70;68.20;;;;;;5052336;28;19916;-82
2022/04/17 04:14:51;;;;;;;;;;;4.60;67.80;;;;;;5050731;28;19951;-82
2022/04/17 04:17:16;;;;;;;;;;;4.50;68.30;;;;;;5042837;28;20276;-83
2022/04/17 04:19:42;;;;;;;;;;;4.50;68.70;;;;;;5055493;28;20063;-86
2022/04/17 04:22:08;;;;;;;;;;;4.40;68.30;;;;;;5048526;22;19936;-84
2022/04/17 04:24:33;;;;;;;;;;;4.60;67.80;;;;;;5035351;28;19922;-83
2022/04/17 04:29:43;;;;;;;;;;;4.70;67.90;;;;;;5036277;28;20501;-83
2022/04/17 04:32:08;;;;;;;;;;;4.50;68.40;;;;;;5033241;28;19917;-82
2022/04/17 04:34:34;;;;;;;;;;;4.50;68.40;;;;;;5024751;28;19925;-83
2022/04/17 04:37:00;;;;;;;;;;;4.50;69.00;;;;;;5018012;28;19943;-83
2022/04/17 04:39:27;;;;;;;;;;;4.40;69.30;;;;;;5023301;28;19940;-83
2022/04/17 04:41:52;;;;;;;;;;;4.30;69.40;;;;;;5033242;28;19920;-84
2022/04/17 04:44:17;;;;;;;;;;;4.40;69.50;;;;;;5030106;28;19913;-84
2022/04/17 04:46:43;;;;;;;;;;;4.30;69.70;;;;;;5030971;28;19940;-83
2022/04/17 04:51:53;;;;;;;;;;;4.20;71.00;;;;;;5026721;28;19925;-83
2022/04/17 04:54:18;;;;;;;;;;;4.10;71.10;;;;;;5025923;28;19918;-83
2022/04/17 04:56:43;;;;;;;;;;;4.20;71.30;;;;;;5038458;28;19923;-84
2022/04/17 04:59:09;;;;;;;;;;;4.30;70.80;;;;;;5032804;28;19917;-83
2022/04/17 05:01:35;;;;;;;;;;;4.30;70.70;;;;;;5060973;22;19975;-87
2022/04/17 05:04:00;;;;;;;;;;;4.50;69.80;;;;;;5049553;28;19913;-87
2022/04/17 05:06:26;;;;;;;;;;;4.50;70.70;;;;;;5061162;28;20432;-89
2022/04/17 05:08:51;;;;;;;;;;;4.60;70.80;;;;;;5046523;28;19921;-89
2022/04/17 05:11:17;;;;;;;;;;;4.60;70.60;;;;;;5044159;28;19920;-87
2022/04/17 05:13:43;;;;;;;;;;;4.60;70.40;;;;;;5052414;28;19909;-87
2022/04/17 05:16:09;;;;;;;;;;;4.60;69.50;;;;;;5050946;28;20008;-77
2022/04/17 05:18:34;;;;;;;;;;;4.70;69.40;;;;;;5054330;28;19976;-83
2022/04/17 05:21:15;;;;;;;;;;;4.90;69.10;;;;;;5050890;28;19921;-89
2022/04/17 05:23:41;;;;;;;;;;;5.20;67.70;;;;;;5053022;28;19913;-88
2022/04/17 05:26:06;;;;;;;;;;;5.30;67.40;;;;;;5053036;28;20406;-89
2022/04/17 05:28:32;;;;;;;;;;;5.50;67.10;;;;;;5052181;28;19917;-88
2022/04/17 05:30:58;;;;;;;;;;;5.60;66.90;;;;;;5050255;28;19935;-89
2022/04/17 05:33:24;;;;;;;;;;;5.70;67.10;;;;;;5073889;28;19908;-85
2022/04/17 05:35:51;;;;;;;;;;;5.70;67.30;;;;;;5059806;28;20016;-86
2022/04/17 05:38:17;;;;;;;;;;;5.60;67.40;;;;;;5044173;28;19920;-84
2022/04/17 05:40:47;;;;;;;;;;;5.80;66.70;;;;;;5050131;28;19923;-85
2022/04/17 05:43:12;;;;;;;;;;;6.00;65.90;;;;;;5053493;28;19970;-85
2022/04/17 05:45:38;;;;;;;;;;;5.90;65.80;;;;;;5063528;28;19912;-85
2022/04/17 05:48:07;;;;;;;;;;;5.90;65.50;;;;;;5060637;28;20398;-84
2022/04/17 05:50:33;;;;;;;;;;;5.90;66.50;;;;;;5049914;28;19928;-84
2022/04/17 05:52:59;;;;;;;;;;;6.10;65.70;;;;;;5051826;28;19988;-84
2022/04/17 05:55:24;;;;;;;;;;;6.10;65.90;;;;;;5052858;28;20011;-84
2022/04/17 05:57:50;;;;;;;;;;;6.30;65.80;;;;;;5050342;28;20274;-84
2022/04/17 06:00:16;;;;;;;;;;;6.70;64.20;;;;;;5050402;28;20431;-84
2022/04/17 06:02:46;;;;;;;;;;;6.90;62.90;;;;;;5049185;28;20017;-85
2022/04/17 06:05:12;;;;;;;;;;;7.00;62.70;;;;;;5050711;28;19912;-84
2022/04/17 06:07:39;;;;;;;;;;;7.20;62.00;;;;;;5047653;28;19913;-87
2022/04/17 06:10:05;;;;;;;;;;;7.10;62.50;;;;;;5047267;28;20275;-84
2022/04/17 06:12:31;;;;;;;;;;;7.20;62.90;;;;;;5050188;28;19913;-84
2022/04/17 06:14:56;;;;;;;;;;;7.30;63.40;;;;;;5052858;28;19931;-85
2022/04/17 06:17:22;;;;;;;;;;;7.30;63.50;;;;;;5051566;28;19912;-85
2022/04/17 06:19:47;;;;;;;;;;;7.60;64.20;;;;;;5058924;28;19912;-83
2022/04/17 06:22:12;;;;;;;;;;;7.40;65.20;;;;;;5073058;28;19909;-84
2022/04/17 06:24:38;;;;;;;;;;;7.30;66.90;;;;;;5070015;28;20009;-84
2022/04/17 06:27:04;;;;;;;;;;;7.30;63.90;;;;;;5056870;28;19909;-83
2022/04/17 06:29:29;;;;;;;;;;;7.50;65.10;;;;;;5054662;28;19913;-83
2022/04/17 06:31:55;;;;;;;;;;;7.50;65.60;;;;;;5056334;28;20197;-81
2022/04/17 06:34:20;;;;;;;;;;;7.80;65.50;;;;;;5057966;28;19970;-81
2022/04/17 06:36:46;;;;;;;;;;;7.90;66.20;;;;;;5056919;28;20003;-84
2022/04/17 06:39:11;;;;;;;;;;;7.90;66.60;;;;;;5052178;28;19948;-83
2022/04/17 06:41:37;;;;;;;;;;;7.90;66.50;;;;;;5049008;28;19995;-83
2022/04/17 06:44:02;;;;;;;;;;;7.90;67.10;;;;;;5052998;28;19913;-85
2022/04/17 06:46:28;;;;;;;;;;;8.10;66.10;;;;;;5053185;28;20004;-83
2022/04/17 06:48:54;;;;;;;;;;;8.30;62.50;;;;;;5051315;28;19909;-82
2022/04/17 06:51:23;;;;;;;;;;;8.20;62.50;;;;;;5048184;28;19925;-85
2022/04/17 06:53:52;;;;;;;;;;;8.30;61.60;;;;;;5048581;28;19963;-82
2022/04/17 06:56:21;;;;;;;;;;;8.40;60.40;;;;;;5051968;28;19917;-82
2022/04/17 06:58:47;;;;;;;;;;;8.50;60.40;;;;;;5053207;28;20326;-82
2022/04/17 07:01:14;;;;;;;;;;;8.50;61.10;;;;;;5055052;28;19997;-82
2022/04/17 07:03:40;;;;;;;;;;;8.60;59.90;;;;;;5053128;28;20007;-82
2022/04/17 07:06:05;;;;;;;;;;;8.70;59.20;;;;;;5058443;28;19997;-82
2022/04/17 07:08:31;;;;;;;;;;;8.80;59.30;;;;;;5054622;28;19917;-84
2022/04/17 07:10:56;;;;;;;;;;;8.90;58.60;;;;;;5054202;28;19912;-84
2022/04/17 07:13:23;;;;;;;;;;;9.00;58.70;;;;;;5058139;28;20012;-84
2022/04/17 07:15:49;;;;;;;;;;;9.00;59.20;;;;;;5056775;28;19995;-84
2022/04/17 07:18:14;;;;;;;;;;;9.10;57.40;;;;;;5052061;28;19928;-82
2022/04/17 07:20:40;;;;;;;;;;;9.30;55.80;;;;;;5052006;28;19963;-82
2022/04/17 07:23:08;;;;;;;;;;;9.30;56.50;;;;;;5048287;28;19937;-83
2022/04/17 07:25:35;;;;;;;;;;;9.30;56.70;;;;;;5051636;28;19999;-84
2022/04/17 07:28:00;;;;;;;;;;;9.30;57.40;;;;;;5057205;28;19916;-83
2022/04/17 07:30:27;;;;;;;;;;;9.30;57.20;;;;;;5048041;28;20356;-83
2022/04/17 07:32:54;;;;;;;;;;;9.50;56.50;;;;;;5051559;28;19983;-83
2022/04/17 07:35:20;;;;;;;;;;;9.60;56.20;;;;;;5034999;28;19909;-85
2022/04/17 07:37:49;;;;;;;;;;;9.60;54.90;;;;;;5046818;28;20271;-84
2022/04/17 07:40:17;;;;;;;;;;;9.70;57.40;;;;;;5044335;28;19912;-85
2022/04/17 07:42:43;;;;;;;;;;;9.80;55.80;;;;;;5045245;28;20383;-85
2022/04/17 07:45:09;;;;;;;;;;;10.00;55.00;;;;;;5049317;28;19920;-87
2022/04/17 07:47:35;;;;;;;;;;;10.00;56.60;;;;;;5047667;28;19920;-86
2022/04/17 07:50:00;;;;;;;;;;;10.00;55.20;;;;;;5042668;28;19920;-86
2022/04/17 07:52:26;;;;;;;;;;;10.10;55.10;;;;;;5046626;28;19971;-85
2022/04/17 07:54:51;;;;;;;;;;;10.10;54.40;;;;;;5048343;28;19928;-85
2022/04/17 07:57:17;;;;;;;;;;;10.40;55.00;;;;;;5063106;28;19909;-87
2022/04/17 07:59:42;;;;;;;;;;;10.30;55.30;;;;;;5056740;28;19972;-86
2022/04/17 08:02:21;;;;;;;;;;;10.50;53.00;;;;;;5048264;28;19917;-85
2022/04/17 08:04:48;;;;;;;;;;;10.60;51.00;;;;;;5055017;28;19935;-85
2022/04/17 08:07:14;;;;;;;;;;;11.10;49.80;;;;;;5051762;28;19962;-85
2022/04/17 08:09:39;;;;;;;;;;;11.30;50.90;;;;;;5053017;28;19913;-84
2022/04/17 08:12:05;;;;;;;;;;;11.40;47.90;;;;;;5064232;28;19912;-83
2022/04/17 08:14:30;;;;;;;;;;;11.40;48.20;;;;;;5056589;28;19927;-83
2022/04/17 08:16:56;;;;;;;;;;;11.60;46.50;;;;;;5053876;28;19919;-86
2022/04/17 08:19:22;;;;;;;;;;;11.80;45.50;;;;;;5034859;28;20297;-84
2022/04/17 08:21:47;;;;;;;;;;;11.70;45.80;;;;;;5039951;28;20018;-85
2022/04/17 08:24:13;;;;;;;;;;;11.80;46.10;;;;;;5045191;28;19917;-84
2022/04/17 08:26:38;;;;;;;;;;;11.90;45.40;;;;;;5057425;28;20011;-86
2022/04/17 08:29:09;;;;;;;;;;;12.00;46.40;;;;;;5068522;28;20395;-88
2022/04/17 08:31:34;;;;;;;;;;;12.20;47.40;;;;;;5048025;28;20008;-84
2022/04/17 08:34:00;;;;;;;;;;;12.10;44.90;;;;;;5041782;28;20583;-83
2022/04/17 08:36:26;;;;;;;;;;;12.20;48.40;;;;;;5047626;28;19913;-83
2022/04/17 08:38:52;;;;;;;;;;;12.20;48.20;;;;;;5047556;28;20015;-84
2022/04/17 08:41:19;;;;;;;;;;;12.30;49.10;;;;;;5049931;28;19948;-83
2022/04/17 08:43:45;;;;;;;;;;;12.50;46.20;;;;;;5049151;28;19987;-86
2022/04/17 08:46:10;;;;;;;;;;;12.40;45.50;;;;;;5045079;28;19921;-83
2022/04/17 08:48:36;;;;;;;;;;;12.40;47.70;;;;;;5051335;28;20271;-83
2022/04/17 08:51:02;;;;;;;;;;;12.50;46.50;;;;;;5046977;28;19928;-84
2022/04/17 08:53:27;;;;;;;;;;;12.40;48.30;;;;;;5049976;28;19960;-85
2022/04/17 08:55:53;;;;;;;;;;;12.30;47.20;;;;;;5060230;28;19948;-83
2022/04/17 08:58:18;;;;;;;;;;;12.20;44.80;;;;;;5049945;28;19984;-83
2022/04/17 09:00:44;;;;;;;;;;;12.50;44.10;;;;;;5041835;28;20570;-84
2022/04/17 09:03:09;;;;;;;;;;;12.60;45.50;;;;;;5047099;28;20573;-84
2022/04/17 09:05:36;;;;;;;;;;;12.80;45.10;;;;;;5054132;28;19913;-84
2022/04/17 09:08:12;;;;;;;;;;;12.80;42.50;;;;;;5051852;28;19920;-83
2022/04/17 09:10:37;;;;;;;;;;;12.80;43.70;;;;;;5054190;28;19936;-85
2022/04/17 09:13:03;;;;;;;;;;;12.80;42.80;;;;;;5050803;28;19921;-81
2022/04/17 09:15:30;;;;;;;;;;;12.70;42.90;;;;;;5062888;28;19940;-83
2022/04/17 09:17:56;;;;;;;;;;;12.80;45.10;;;;;;5057946;28;19921;-83
2022/04/17 09:20:23;;;;;;;;;;;12.90;42.50;;;;;;5057294;28;19924;-85
2022/04/17 09:22:49;;;;;;;;;;;12.90;44.40;;;;;;5065304;28;19913;-85
2022/04/17 09:25:15;;;;;;;;;;;12.90;42.90;;;;;;5050247;28;19924;-85
2022/04/17 09:27:54;;;;;;;;;;;13.00;43.10;;;;;;5069847;28;19913;-85
2022/04/17 09:30:26;;;;;;;;;;;13.00;41.80;;;;;;5060141;28;19912;-86
2022/04/17 09:32:52;;;;;;;;;;;13.10;41.00;;;;;;5062933;28;19900;-85
2022/04/17 09:35:20;;;;;;;;;;;12.90;41.60;;;;;;5071250;28;19913;-85
2022/04/17 09:37:46;;;;;;;;;;;12.80;42.30;;;;;;5053351;28;19960;-86
2022/04/17 09:40:12;;;;;;;;;;;13.10;42.50;;;;;;5051657;28;19972;-85
2022/04/17 09:42:37;;;;;;;;;;;13.10;42.60;;;;;;5040936;28;19913;-85
2022/04/17 09:45:06;;;;;;;;;;;13.30;44.10;;;;;;5052671;28;20398;-86
2022/04/17 09:47:32;;;;;;;;;;;13.40;41.50;;;;;;5050079;28;19925;-85
2022/04/17 09:50:07;;;;;;;;;;;13.50;41.80;;;;;;5059451;28;20237;-85
2022/04/17 09:52:33;;;;;;;;;;;13.50;44.60;;;;;;5051009;28;19924;-85
2022/04/17 09:55:00;;;;;;;;;;;13.60;44.80;;;;;;5051879;28;19909;-86
2022/04/17 09:57:27;;;;;;;;;;;13.60;42.00;;;;;;5049834;28;19989;-86
2022/04/17 09:59:53;;;;;;;;;;;13.50;42.30;;;;;;5049186;28;19917;-85
2022/04/17 10:02:19;;;;;;;;;;;13.60;43.40;;;;;;5050227;28;19938;-85
2022/04/17 10:04:45;;;;;;;;;;;13.60;43.70;;;;;;5050833;28;19919;-85
2022/04/17 10:07:11;;;;;;;;;;;13.80;43.80;;;;;;5050182;28;20039;-85
2022/04/17 10:09:37;;;;;;;;;;;13.80;43.60;;;;;;5048021;28;20008;-85
2022/04/17 10:12:03;;;;;;;;;;;13.80;43.00;;;;;;5043671;28;19920;-84
2022/04/17 10:14:28;;;;;;;;;;;13.80;41.00;;;;;;5058826;28;19913;-85
2022/04/17 10:16:55;;;;;;;;;;;13.90;41.70;;;;;;5052350;28;20376;-84
2022/04/17 10:19:21;;;;;;;;;;;13.90;42.10;;;;;;5051992;28;19929;-84
2022/04/17 10:21:47;;;;;;;;;;;13.90;41.10;;;;;;5051658;28;19920;-81
2022/04/17 10:24:13;;;;;;;;;;;14.00;42.20;;;;;;5041187;28;19916;-87
2022/04/17 10:26:43;;;;;;;;;;;14.10;42.90;;;;;;5045995;28;19935;-84
2022/04/17 10:29:27;;;;;;;;;;;14.20;42.70;;;;;;5037673;28;19964;-86
2022/04/17 10:32:15;;;;;;;;;;;14.10;41.00;;;;;;5058888;28;19917;-90
2022/04/17 10:34:51;;;;;;;;;;;14.20;45.30;;;;;;5044505;28;19929;-88
2022/04/17 10:37:56;;;;;;;;;;;14.30;41.30;;;;;;5026529;28;20677;-90
2022/04/17 10:40:23;;;;;;;;;;;14.40;44.70;;;;;;5053702;28;19928;-88
2022/04/17 10:43:08;;;;;;;;;;;14.50;40.60;;;;;;5051762;28;19920;-89
2022/04/17 10:52:00;;;;;;;;;;;14.50;42.10;;;;;;5044493;28;19967;-89
2022/04/17 10:54:55;;;;;;;;;;;14.70;40.10;;;;;;5053453;28;19913;-90
2022/04/17 10:57:27;;;;;;;;;;;14.90;42.10;;;;;;5047558;28;19990;-88
2022/04/17 11:00:38;;;;;;;;;;;;;;;;;;;;;
2022/04/17 11:03:10;;;;;;;;;;;15.00;40.50;;;;;;5035620;28;19971;-89
2022/04/17 11:09:05;;;;;;;;;;;14.80;40.80;;;;;;5054784;28;20016;-88
2022/04/17 11:11:37;;;;;;;;;;;14.90;38.60;;;;;;5046702;28;20477;-85
2022/04/17 11:14:18;;;;;;;;;;;15.10;40.60;;;;;;5057122;28;20387;-86
2022/04/17 11:16:43;;;;;;;;;;;15.00;40.60;;;;;;5048897;28;20271;-86
2022/04/17 11:19:12;;;;;;;;;;;15.00;41.80;;;;;;5051547;28;20407;-88
2022/04/17 11:21:52;;;;;;;;;;;15.00;41.20;;;;;;5047181;28;20375;-85
2022/04/17 11:24:19;;;;;;;;;;;15.10;40.60;;;;;;5058342;28;20000;-88
2022/04/17 11:26:52;;;;;;;;;;;15.40;41.70;;;;;;5050696;28;22323;-89
2022/04/17 11:29:32;;;;;;;;;;;15.30;39.40;;;;;;5050278;28;19912;-88
2022/04/17 11:31:58;;;;;;;;;;;15.10;39.70;;;;;;5046022;28;19914;-88
2022/04/17 11:34:58;;;;;;;;;;;15.30;39.00;;;;;;5051328;28;20396;-89
2022/04/17 11:37:34;;;;;;;;;;;;;;;;;;;;;
2022/04/17 11:40:44;;;;;;;;;;;15.20;38.40;;;;;;5041891;28;19921;-88
2022/04/17 11:43:14;;;;;;;;;;;15.20;38.60;;;;;;5023618;28;19919;-90
2022/04/17 11:48:49;;;;;;;;;;;15.50;43.20;;;;;;5045390;28;19927;-86
2022/04/17 11:51:37;;;;;;;;;;;15.80;43.20;;;;;;5052588;28;19957;-87
2022/04/17 11:54:26;;;;;;;;;;;16.00;43.80;;;;;;5061876;28;19921;-85
2022/04/17 11:56:54;;;;;;;;;;;15.80;38.70;;;;;;5053851;28;19920;-92
2022/04/17 11:59:20;;;;;;;;;;;15.80;39.80;;;;;;5056602;28;19970;-94
2022/04/17 12:01:45;;;;;;;;;;;15.80;42.30;;;;;;5058311;28;19933;-93
2022/04/17 12:04:28;;;;;;;;;;;15.90;41.20;;;;;;5067012;28;19928;-96
2022/04/17 12:06:56;;;;;;;;;;;15.80;37.90;;;;;;5060663;28;20001;-89
2022/04/17 12:09:35;;;;;;;;;;;15.80;37.50;;;;;;5053794;28;20242;-86
2022/04/17 12:12:09;;;;;;;;;;;15.80;38.20;;;;;;5045923;28;20000;-89
2022/04/17 12:14:38;;;;;;;;;;;15.90;40.40;;;;;;5041155;28;20441;-89
2022/04/17 12:17:14;;;;;;;;;;;16.00;39.20;;;;;;5062702;28;19913;-89
2022/04/17 12:20:12;;;;;;;;;;;16.10;39.70;;;;;;5049233;28;19921;-89
2022/04/17 12:22:46;;;;;;;;;;;16.10;39.90;;;;;;5034799;28;19943;-89
2022/04/17 12:25:20;;;;;;;;;;;16.20;41.50;;;;;;5043331;28;19917;-89
2022/04/17 12:27:50;;;;;;;;;;;16.40;41.10;;;;;;5044496;28;20054;-88
2022/04/17 12:30:40;;;;;;;;;;;16.50;40.30;;;;;;5045747;28;19913;-89
2022/04/17 12:33:23;;;;;;;;;;;16.40;40.50;;;;;;5058965;28;19964;-86
2022/04/17 12:36:07;;;;;;;;;;;16.40;43.50;;;;;;5051282;28;19913;-85
2022/04/17 12:38:53;;;;;;;;;;;16.50;40.10;;;;;;5046010;28;19921;-86
2022/04/17 12:41:55;;;;;;;;;;;16.40;39.00;;;;;;5046573;28;19952;-86
2022/04/17 12:44:44;;;;;;;;;;;16.40;41.10;;;;;;5035917;28;20407;-86
2022/04/17 12:47:13;;;;;;;;;;;16.20;38.50;;;;;;5044164;28;19912;-83
2022/04/17 12:49:38;;;;;;;;;;;16.30;39.10;;;;;;5043913;28;20443;-83
2022/04/17 12:52:04;;;;;;;;;;;16.40;42.10;;;;;;5043651;28;19923;-80
2022/04/17 12:54:31;;;;;;;;;;;16.50;39.90;;;;;;5046187;28;20359;-83
2022/04/17 12:57:00;;;;;;;;;;;16.30;38.30;;;;;;5052700;28;19913;-82
2022/04/17 12:59:25;;;;;;;;;;;16.20;37.90;;;;;;5051543;28;19925;-83
2022/04/17 13:01:51;;;;;;;;;;;16.50;39.50;;;;;;5049621;28;20005;-88
2022/04/17 13:04:20;;;;;;;;;;;16.40;41.50;;;;;;5050536;28;19963;-86
2022/04/17 13:06:47;;;;;;;;;;;16.40;39.20;;;;;;5052277;28;19912;-84
2022/04/17 13:09:16;;;;;;;;;;;16.50;39.20;;;;;;5044042;28;19921;-83
2022/04/17 13:11:42;;;;;;;;;;;16.40;39.90;;;;;;5052756;28;20291;-83
2022/04/17 13:14:08;;;;;;;;;;;16.50;37.70;;;;;;5059524;28;20043;-84
2022/04/17 13:16:34;;;;;;;;;;;16.50;38.10;;;;;;5058701;28;20001;-85
2022/04/17 13:18:59;;;;;;;;;;;16.60;39.40;;;;;;5065606;28;19964;-85
2022/04/17 13:21:25;;;;;;;;;;;16.60;38.30;;;;;;5050526;28;20283;-82
2022/04/17 13:23:51;;;;;;;;;;;16.60;39.70;;;;;;5051245;28;20007;-81
2022/04/17 13:26:18;;;;;;;;;;;16.60;38.80;;;;;;5050926;28;20000;-81
2022/04/17 13:28:44;;;;;;;;;;;16.60;39.30;;;;;;5045966;28;19909;-82
2022/04/17 13:31:10;;;;;;;;;;;16.70;39.00;;;;;;5050361;28;20007;-83
2022/04/17 13:33:35;;;;;;;;;;;16.60;38.20;;;;;;5049954;28;20233;-83
2022/04/17 13:36:01;;;;;;;;;;;16.70;38.50;;;;;;5052729;28;20400;-84
2022/04/17 13:38:27;;;;;;;;;;;16.90;36.80;;;;;;5049227;28;20413;-83
2022/04/17 13:40:53;;;;;;;;;;;16.90;38.00;;;;;;5044484;28;19966;-81
2022/04/17 13:43:20;;;;;;;;;;;16.90;38.50;;;;;;5046929;28;19925;-79
2022/04/17 13:45:45;;;;;;;;;;;17.00;39.60;;;;;;5044685;28;19920;-78
2022/04/17 13:48:10;;;;;;;;;;;16.90;35.30;;;;;;5045478;28;20034;-80
2022/04/17 13:50:37;;;;;;;;;;;16.90;37.40;;;;;;5049660;28;20018;-81
2022/04/17 13:53:03;;;;;;;;;;;16.80;36.00;;;;;;5050298;28;19917;-82
2022/04/17 13:55:28;;;;;;;;;;;17.00;38.60;;;;;;5050751;28;19920;-81
2022/04/17 13:57:54;;;;;;;;;;;16.90;35.20;;;;;;5058180;28;20017;-82
2022/04/17 14:00:19;;;;;;;;;;;16.90;34.50;;;;;;5064965;28;19944;-83
2022/04/17 14:02:45;;;;;;;;;;;16.90;34.10;;;;;;5052529;28;19985;-82
2022/04/17 14:05:10;;;;;;;;;;;17.00;38.20;;;;;;5053550;28;19927;-82
2022/04/17 14:07:36;;;;;;;;;;;17.00;37.00;;;;;;5054311;28;20336;-83
2022/04/17 14:10:02;;;;;;;;;;;16.90;35.10;;;;;;5049878;28;19913;-83
2022/04/17 14:12:28;;;;;;;;;;;17.00;35.70;;;;;;5052637;28;20003;-85
2022/04/17 14:14:56;;;;;;;;;;;16.90;34.00;;;;;;5052652;28;19913;-82
2022/04/17 14:17:22;;;;;;;;;;;16.90;34.90;;;;;;5053170;28;19919;-82
2022/04/17 14:19:47;;;;;;;;;;;16.90;34.80;;;;;;5051557;28;20357;-82
2022/04/17 14:22:12;;;;;;;;;;;16.90;34.30;;;;;;5046072;28;19913;-82
2022/04/17 14:24:38;;;;;;;;;;;16.90;35.60;;;;;;5063582;28;19908;-82
2022/04/17 14:27:03;;;;;;;;;;;17.00;36.40;;;;;;5070235;28;19908;-83
2022/04/17 14:29:29;;;;;;;;;;;16.90;34.90;;;;;;5064778;28;19928;-81
2022/04/17 14:31:54;;;;;;;;;;;16.90;36.50;;;;;;5056978;28;19920;-83
2022/04/17 14:34:20;;;;;;;;;;;16.90;33.50;;;;;;5045299;28;19912;-82
2022/04/17 14:36:45;;;;;;;;;;;17.00;35.00;;;;;;5054781;28;19909;-81
2022/04/17 14:39:11;;;;;;;;;;;17.00;34.50;;;;;;5052468;28;19921;-80
2022/04/17 14:41:36;;;;;;;;;;;17.00;35.20;;;;;;5053364;28;19909;-81
2022/04/17 14:44:02;;;;;;;;;;;17.10;35.90;;;;;;5054338;28;20303;-81
2022/04/17 14:46:28;;;;;;;;;;;17.10;37.60;;;;;;5059931;28;20347;-80
2022/04/17 14:48:53;;;;;;;;;;;17.10;33.50;;;;;;5064074;28;19923;-81
2022/04/17 14:51:18;;;;;;;;;;;17.10;33.70;;;;;;5055997;28;19987;-81
2022/04/17 14:53:48;;;;;;;;;;;17.10;31.70;;;;;;5058307;28;19923;-80
2022/04/17 14:56:13;;;;;;;;;;;17.10;33.00;;;;;;5060249;28;19913;-80
2022/04/17 14:58:39;;;;;;;;;;;17.00;32.30;;;;;;5063229;28;20379;-81